Airfield :
LOGIN :

Register | Disclaimer

   EN    FR    IT 

 










Legend :    VFR   Marginal VFR   IFR   Intensive IFR   Very Intensive IFR
Visi :
Ceiling :
>= 8 km
>= 3000ft
5 to 8 km
1000 to 3000 ft
1500m to 5 km
500 to 1000 ft
800 to 1500m
200 to 500 ft
< 800m
< 200 ft
Symbols :   Thunderstorms  Fog  Heavy snow  Heavy precipitations  Wind > 20 kt
SIGMETs :     Misc.  Thunderstorms  Icing  Turbulence  Mountain Waves  Volcanic Ashes







- Airport Elevation : 249 ft


EGOS - RAF Shawbury

CURRENT METAR :
  • 212150Z 34013KT CAVOK 12/09 Q1017 BLU NOSIG

EXPIRED METARs :
  • 212050Z 33016KT 9999 FEW040 SCT070 BKN090 13/09 Q1017 BLU NOSIG
  • 211950Z 33015KT 9999 -SHRA FEW040 BKN080 14/08 Q1017 BLU NOSIG

TAF AMD TAF EGOS
Valid from the 21 at 21:00 until the 22 at 02:00 UTC


212054Z 2121/2202 34015G23KT 9999 FEW045
BECMG 2121/2123 34008KT
PROB30 2200/2202 7000 HZ SCT005
No reported NOTAMs for that airfield.



MET'MAP, your aeronautical weather chart ! - Copyright ORBIFLY December 2007 - Disclaimer

ORBIFLY MET'MAP TEAM :

Programming & Development : Alexandra Zaïnal
Concept & Development : Baudouin d'Aumeries
Co-Development & Prog : Marc-Olivier Méhu
Technical & hardware support : Manuel Goepfert

Contact : metmap@orbifly.com




SOURCES & CREDITS :

   NOAA